createdAt,value
2019-01-04T00:00:26.651Z,104098.35
2019-01-04T00:03:30.084Z,104102.20
2019-01-04T00:06:33.601Z,104098.90
2019-01-04T00:09:37.116Z,104102.17
2019-01-04T00:12:40.613Z,104103.07
2019-01-04T00:15:44.465Z,104095.87
2019-01-04T00:18:48.182Z,104105.35
2019-01-04T00:21:51.528Z,104112.04
2019-01-04T00:24:55.032Z,104109.17
2019-01-04T00:27:58.557Z,104108.97
2019-01-04T00:31:02.049Z,104116.22
2019-01-04T00:34:05.561Z,104112.18
2019-01-04T00:37:09.078Z,104114.62
2019-01-04T00:40:12.981Z,104111.76
2019-01-04T00:43:16.381Z,104101.03
2019-01-04T00:46:19.771Z,104101.08
2019-01-04T00:49:23.191Z,104098.91
2019-01-04T00:52:26.720Z,104100.88
2019-01-04T00:55:47.965Z,104091.87
2019-01-04T01:01:07.309Z,104093.79
2019-01-04T01:04:58.002Z,104097.94
2019-01-04T01:08:13.080Z,104094.61
2019-01-04T01:12:28.639Z,104091.50
2019-01-04T01:19:51.784Z,104085.75
2019-01-04T01:23:06.506Z,104091.34
2019-01-04T01:26:41.129Z,104085.07
2019-01-04T01:30:01.009Z,104087.49
2019-01-04T01:33:13.914Z,104091.32
2019-01-04T01:36:26.669Z,104100.85
2019-01-04T01:39:55.534Z,104100.03
2019-01-04T01:43:17.055Z,104091.79
2019-01-04T01:46:34.774Z,104094.10
2019-01-04T01:50:20.151Z,104095.24
2019-01-04T01:53:23.818Z,104093.47
2019-01-04T01:56:27.410Z,104085.53
2019-01-04T01:59:31.010Z,104082.24
2019-01-04T02:02:34.620Z,104077.61
2019-01-04T02:05:38.118Z,104088.23
2019-01-04T02:08:41.706Z,104084.76
2019-01-04T02:11:45.242Z,104092.23
2019-01-04T02:14:49.867Z,104095.02
2019-01-04T02:17:54.655Z,104101.16
2019-01-04T02:20:58.096Z,104103.81
2019-01-04T02:24:01.609Z,104105.28
2019-01-04T02:27:05.252Z,104106.57
2019-01-04T02:30:09.436Z,104108.22
2019-01-04T02:33:13.019Z,104112.16
2019-01-04T02:36:17.450Z,104114.30
2019-01-04T02:39:21.056Z,104120.67
2019-01-04T02:42:24.646Z,104112.58
2019-01-04T02:45:28.185Z,104116.97
2019-01-04T02:48:31.760Z,104107.50
2019-01-04T02:51:35.349Z,104109.37
2019-01-04T02:54:38.866Z,104108.78
2019-01-04T02:57:42.329Z,104112.26
2019-01-04T03:00:45.815Z,104110.24
2019-01-04T03:03:49.358Z,104115.05
2019-01-04T03:06:52.776Z,104105.58
2019-01-04T03:09:56.275Z,104102.53
2019-01-04T03:12:59.877Z,104101.00
2019-01-04T03:16:03.308Z,104094.74
2019-01-04T03:19:06.898Z,104092.35
2019-01-04T03:22:10.490Z,104082.34
2019-01-04T03:25:13.991Z,104078.15
2019-01-04T03:28:17.633Z,104077.25
2019-01-04T03:31:21.213Z,104079.67
2019-01-04T03:34:24.789Z,104080.36
2019-01-04T03:37:28.207Z,104078.61
2019-01-04T03:40:31.805Z,104080.58
2019-01-04T03:43:35.296Z,104085.85
2019-01-04T03:46:38.743Z,104091.42
2019-01-04T03:49:42.225Z,104089.88
2019-01-04T03:52:45.719Z,104084.78
2019-01-04T03:55:49.136Z,104077.72
2019-01-04T03:58:52.648Z,104078.36
2019-01-04T04:01:56.143Z,104084.28
2019-01-04T04:04:59.711Z,104069.62
2019-01-04T04:08:03.135Z,104065.89
2019-01-04T04:11:06.649Z,104071.60
2019-01-04T04:14:10.149Z,104057.10
2019-01-04T04:17:13.641Z,104056.40
2019-01-04T04:20:17.444Z,104056.08
2019-01-04T04:23:20.851Z,104055.46
2019-01-04T04:26:24.467Z,104054.78
2019-01-04T04:29:27.959Z,104051.50
2019-01-04T04:32:31.513Z,104053.08
2019-01-04T04:35:35.049Z,104057.65
2019-01-04T04:38:38.460Z,104063.84
2019-01-04T04:41:42.075Z,104064.74
2019-01-04T04:44:45.697Z,104052.40
2019-01-04T04:47:49.285Z,104045.56
2019-01-04T04:50:52.878Z,104042.37
2019-01-04T04:53:56.520Z,104042.38
2019-01-04T04:57:00.094Z,104041.93
2019-01-04T05:00:03.624Z,104041.23
2019-01-04T05:03:07.149Z,104048.26
2019-01-04T05:06:11.703Z,104044.56
2019-01-04T05:09:15.257Z,104043.81
2019-01-04T05:12:18.832Z,104049.88
2019-01-04T05:15:22.216Z,104049.45
2019-01-04T05:18:25.708Z,104053.36
2019-01-04T05:21:29.097Z,104063.56
2019-01-04T05:24:32.514Z,104061.15
2019-01-04T05:27:35.892Z,104058.57
2019-01-04T05:30:39.460Z,104062.08
2019-01-04T05:33:42.947Z,104064.68
2019-01-04T05:36:46.334Z,104066.70
2019-01-04T05:39:49.871Z,104072.04
2019-01-04T05:42:53.374Z,104081.69
2019-01-04T05:45:56.885Z,104077.01
2019-01-04T05:49:00.429Z,104062.26
2019-01-04T05:52:03.982Z,104066.88
2019-01-04T05:55:07.587Z,104060.80
2019-01-04T05:58:11.157Z,104064.51
2019-01-04T06:01:14.743Z,104066.51
2019-01-04T06:04:18.197Z,104071.74
2019-01-04T06:07:21.644Z,104060.16
2019-01-04T06:10:25.111Z,104057.51
2019-01-04T06:13:28.696Z,104057.74
2019-01-04T06:16:32.069Z,104055.29
2019-01-04T06:19:35.578Z,104048.87
2019-01-04T06:22:39.060Z,104044.79
2019-01-04T06:25:42.827Z,104051.30
2019-01-04T06:28:46.401Z,104050.87
2019-01-04T06:31:49.800Z,104060.71
2019-01-04T06:34:53.253Z,104063.37
2019-01-04T06:37:56.704Z,104059.39
2019-01-04T06:41:00.091Z,104057.18
2019-01-04T06:44:03.707Z,104067.58
2019-01-04T06:47:13.575Z,104072.43
2019-01-04T06:50:17.131Z,104073.96
2019-01-04T06:53:21.709Z,104074.53
2019-01-04T06:56:25.267Z,104066.70
2019-01-04T06:59:28.682Z,104077.02
2019-01-04T07:02:32.217Z,104076.80
2019-01-04T07:05:35.710Z,104079.67
2019-01-04T07:08:39.236Z,104089.40
2019-01-04T07:11:42.614Z,104097.16
2019-01-04T07:14:46.118Z,104093.38
2019-01-04T07:17:49.656Z,104092.76
2019-01-04T07:20:53.246Z,104093.35
2019-01-04T07:23:56.848Z,104091.45
2019-01-04T07:27:00.292Z,104097.59
2019-01-04T07:30:03.852Z,104104.81
2019-01-04T07:33:07.320Z,104110.36
2019-01-04T07:36:10.822Z,104110.25
2019-01-04T07:39:14.302Z,104121.75
2019-01-04T07:42:17.826Z,104121.47
2019-01-04T07:45:21.333Z,104116.47
2019-01-04T07:48:24.855Z,104124.16
2019-01-04T07:51:28.406Z,104128.30
2019-01-04T07:54:31.856Z,104135.92
2019-01-04T07:57:35.341Z,104123.56
2019-01-04T08:00:39.973Z,104129.28
2019-01-04T08:03:43.471Z,104123.54
2019-01-04T08:06:46.977Z,104128.21
2019-01-04T08:09:50.629Z,104122.41
2019-01-04T08:12:54.590Z,104131.51
2019-01-04T08:15:58.197Z,104129.30
2019-01-04T08:19:01.960Z,104141.29
2019-01-04T08:22:05.697Z,104146.31
2019-01-04T08:25:10.191Z,104146.55
2019-01-04T08:28:13.791Z,104131.80
2019-01-04T08:31:17.379Z,104125.89
2019-01-04T08:34:20.846Z,104126.50
2019-01-04T08:37:24.374Z,104125.56
2019-01-04T08:40:28.015Z,104137.12
2019-01-04T08:43:31.636Z,104127.85
2019-01-04T08:46:36.177Z,104125.10
2019-01-04T08:49:39.867Z,104131.10
2019-01-04T08:52:44.809Z,104126.01
2019-01-04T08:55:48.725Z,104123.20
2019-01-04T08:58:52.274Z,104125.58
2019-01-04T09:01:55.853Z,104125.28
2019-01-04T09:05:06.826Z,104120.63
2019-01-04T09:08:10.513Z,104113.65
2019-01-04T09:11:26.270Z,104112.10
2019-01-04T09:14:33.718Z,104112.94
2019-01-04T09:17:38.219Z,104116.86
2019-01-04T09:20:41.896Z,104130.66
2019-01-04T09:23:45.465Z,104134.93
2019-01-04T09:26:49.454Z,104134.28
2019-01-04T09:29:53.154Z,104131.66
2019-01-04T09:32:56.857Z,104121.77
2019-01-04T09:36:00.426Z,104123.57
2019-01-04T09:39:04.378Z,104122.90
2019-01-04T09:42:11.526Z,104127.15
2019-01-04T09:45:15.188Z,104119.69
2019-01-04T09:48:18.734Z,104116.36
2019-01-04T09:51:22.490Z,104113.74
2019-01-04T09:54:26.051Z,104111.10
2019-01-04T09:57:29.691Z,104109.15
2019-01-04T10:00:33.420Z,104106.63
2019-01-04T10:03:37.020Z,104102.28
2019-01-04T10:06:40.603Z,104088.29
2019-01-04T10:09:44.145Z,104082.98
2019-01-04T10:12:47.761Z,104077.40
2019-01-04T10:15:51.431Z,104065.45
2019-01-04T10:18:54.903Z,104061.09
2019-01-04T10:21:58.357Z,104056.24
2019-01-04T10:25:01.985Z,104049.29
2019-01-04T10:28:05.608Z,104043.78
2019-01-04T10:31:09.194Z,104045.85
2019-01-04T10:34:12.869Z,104045.34
2019-01-04T10:37:16.486Z,104046.87
2019-01-04T10:40:21.106Z,104044.09
2019-01-04T10:43:24.718Z,104030.07
2019-01-04T10:46:28.418Z,104028.32
2019-01-04T10:49:32.088Z,104023.76
2019-01-04T10:52:35.827Z,104013.65
2019-01-04T10:55:39.267Z,104009.94
2019-01-04T10:58:42.888Z,104006.91
2019-01-04T11:01:46.439Z,104009.33
2019-01-04T11:04:49.922Z,104009.33
2019-01-04T11:07:53.345Z,104005.16
2019-01-04T11:10:56.870Z,104014.90
2019-01-04T11:14:00.471Z,104005.40
2019-01-04T11:17:04.022Z,103997.20
2019-01-04T11:20:12.159Z,103998.21
2019-01-04T11:24:28.695Z,103989.03
2019-01-04T11:27:43.045Z,103981.55
2019-01-04T11:31:01.673Z,103976.26
2019-01-04T11:35:22.784Z,103975.82
2019-01-04T11:38:36.570Z,103959.61
2019-01-04T11:41:57.749Z,103960.88
2019-01-04T11:45:21.590Z,103953.98
2019-01-04T11:49:39.942Z,103947.98
2019-01-04T11:52:48.445Z,103944.78
2019-01-04T11:55:52.044Z,103938.01
2019-01-04T11:58:55.594Z,103939.01
2019-01-04T12:01:59.228Z,103922.51
2019-01-04T12:05:02.918Z,103915.66
2019-01-04T12:08:06.399Z,103915.11
2019-01-04T12:11:09.995Z,103917.60
2019-01-04T12:14:13.498Z,103914.30
2019-01-04T12:17:17.148Z,103909.92
2019-01-04T12:20:20.602Z,103904.76
2019-01-04T12:23:24.240Z,103905.67
2019-01-04T12:26:27.910Z,103909.02
2019-01-04T12:29:31.724Z,103909.02
2019-01-04T12:32:35.205Z,103892.73
2019-01-04T12:35:38.704Z,103889.71
2019-01-04T12:38:42.537Z,103878.19
2019-01-04T12:41:46.081Z,103868.69
2019-01-04T12:44:49.641Z,103879.70
2019-01-04T12:47:53.096Z,103884.19
2019-01-04T12:50:57.730Z,103888.53
2019-01-04T12:54:01.332Z,103895.38
2019-01-04T12:57:04.865Z,103887.15
2019-01-04T13:00:10.535Z,103878.54
2019-01-04T13:03:14.020Z,103866.64
2019-01-04T13:06:17.936Z,103870.20
2019-01-04T13:09:21.576Z,103876.81
2019-01-04T13:12:25.150Z,103873.68
2019-01-04T13:15:28.615Z,103869.50
2019-01-04T13:18:32.180Z,103862.25
2019-01-04T13:21:35.848Z,103874.43
2019-01-04T13:24:39.374Z,103871.92
2019-01-04T13:27:43.049Z,103880.41
2019-01-04T13:30:46.559Z,103881.84
2019-01-04T13:33:50.034Z,103874.80
2019-01-04T13:36:53.577Z,103875.39
2019-01-04T13:39:57.132Z,103874.26
2019-01-04T13:43:00.757Z,103871.55
2019-01-04T13:46:04.564Z,103855.64
2019-01-04T13:49:08.183Z,103858.75
2019-01-04T13:52:11.723Z,103854.85
2019-01-04T13:55:15.421Z,103846.10
2019-01-04T13:58:18.925Z,103840.92
2019-01-04T14:01:22.396Z,103848.98
2019-01-04T14:04:25.986Z,103836.63
2019-01-04T14:07:29.682Z,103840.79
2019-01-04T14:10:33.457Z,103850.04
2019-01-04T14:13:37.058Z,103833.35
2019-01-04T14:16:40.707Z,103811.70
2019-01-04T14:19:45.268Z,103803.91
2019-01-04T14:22:48.739Z,103798.97
2019-01-04T14:25:52.239Z,103802.48
2019-01-04T14:28:55.811Z,103807.82
2019-01-04T14:31:59.593Z,103792.62
2019-01-04T14:35:03.085Z,103785.15
2019-01-04T14:38:06.615Z,103773.70
2019-01-04T14:41:10.113Z,103763.22
2019-01-04T14:44:13.648Z,103762.34
2019-01-04T14:47:17.454Z,103761.79
2019-01-04T14:50:21.033Z,103765.97
2019-01-04T14:53:24.520Z,103766.34
2019-01-04T14:56:28.012Z,103767.13
2019-01-04T14:59:31.469Z,103761.29
2019-01-04T15:02:35.035Z,103758.10
2019-01-04T15:05:38.525Z,103747.06
2019-01-04T15:08:42.069Z,103734.74
2019-01-04T15:11:45.623Z,103734.48
2019-01-04T15:14:49.087Z,103721.79
2019-01-04T15:17:52.660Z,103715.96
2019-01-04T15:20:56.146Z,103703.64
2019-01-04T15:23:59.632Z,103694.48
2019-01-04T15:27:03.381Z,103689.10
2019-01-04T15:30:09.318Z,103709.97
2019-01-04T15:33:12.893Z,103716.95
2019-01-04T15:36:16.526Z,103735.28
2019-01-04T15:39:20.234Z,103750.69
2019-01-04T15:42:23.832Z,103755.49
2019-01-04T15:45:27.453Z,103748.80
2019-01-04T15:48:31.253Z,103731.90
2019-01-04T15:51:34.896Z,103741.79
2019-01-04T15:54:38.368Z,103735.30
2019-01-04T15:57:42.028Z,103738.68
2019-01-04T16:00:45.665Z,103737.76
2019-01-04T16:03:49.263Z,103755.32
2019-01-04T16:06:52.849Z,103755.58
2019-01-04T16:09:56.390Z,103749.36
2019-01-04T16:12:59.970Z,103749.27
2019-01-04T16:16:03.703Z,103736.70
2019-01-04T16:19:07.335Z,103737.50
2019-01-04T16:22:10.909Z,103737.70
2019-01-04T16:25:14.582Z,103745.20
2019-01-04T16:28:18.278Z,103748.09
2019-01-04T16:31:22.089Z,103757.28
2019-01-04T16:34:26.130Z,103761.85
2019-01-04T16:37:29.852Z,103756.80
2019-01-04T16:40:33.717Z,103761.59
2019-01-04T16:43:37.367Z,103751.49
2019-01-04T16:46:40.848Z,103757.31
2019-01-04T16:49:44.515Z,103751.49
2019-01-04T16:52:48.029Z,103757.63
2019-01-04T16:55:51.484Z,103764.99
2019-01-04T16:58:54.997Z,103769.83
2019-01-04T17:01:58.452Z,103760.50
2019-01-04T17:05:01.938Z,103753.13
2019-01-04T17:08:05.605Z,103744.00
2019-01-04T17:11:09.149Z,103743.18
2019-01-04T17:14:12.854Z,103748.04
2019-01-04T17:17:16.263Z,103757.50
2019-01-04T17:20:19.793Z,103754.47
2019-01-04T17:23:23.396Z,103763.91
2019-01-04T17:26:27.840Z,103767.79
2019-01-04T17:29:31.513Z,103762.36
2019-01-04T17:32:35.035Z,103757.86
2019-01-04T17:35:38.688Z,103759.73
2019-01-04T17:38:42.043Z,103755.16
2019-01-04T17:41:45.823Z,103743.78
2019-01-04T17:44:49.571Z,103739.34
2019-01-04T17:47:53.296Z,103730.31
2019-01-04T17:50:57.840Z,103731.50
2019-01-04T17:54:01.393Z,103718.00
2019-01-04T17:57:05.132Z,103726.90
2019-01-04T18:00:10.194Z,103720.56
2019-01-04T18:03:13.617Z,103725.96
2019-01-04T18:06:17.163Z,103725.56
2019-01-04T18:09:20.646Z,103710.63
2019-01-04T18:12:24.332Z,103725.45
2019-01-04T18:15:27.829Z,103722.13
2019-01-04T18:18:31.398Z,103726.05
2019-01-04T18:21:34.856Z,103717.69
2019-01-04T18:24:38.347Z,103714.28
2019-01-04T18:27:42.008Z,103708.66
2019-01-04T18:30:45.581Z,103706.96
2019-01-04T18:33:49.189Z,103719.08
2019-01-04T18:36:52.706Z,103712.56
2019-01-04T18:39:56.304Z,103712.45
2019-01-04T18:43:00.055Z,103709.79
2019-01-04T18:46:03.558Z,103706.57
2019-01-04T18:49:08.375Z,103712.77
2019-01-04T18:52:11.947Z,103710.19
2019-01-04T18:55:15.508Z,103715.36
2019-01-04T18:58:19.028Z,103709.23
2019-01-04T19:01:23.458Z,103702.92
2019-01-04T19:04:26.994Z,103691.04
2019-01-04T19:07:30.513Z,103689.95
2019-01-04T19:10:34.074Z,103682.72
2019-01-04T19:13:37.587Z,103687.50
2019-01-04T19:16:41.142Z,103677.19
2019-01-04T19:19:44.699Z,103684.31
2019-01-04T19:22:48.271Z,103671.49
2019-01-04T19:25:51.790Z,103676.39
2019-01-04T19:28:55.278Z,103672.93
2019-01-04T19:31:58.773Z,103671.42
2019-01-04T19:35:02.303Z,103677.54
2019-01-04T19:38:05.788Z,103679.39
2019-01-04T19:41:09.309Z,103685.12
2019-01-04T19:44:12.804Z,103680.82
2019-01-04T19:47:16.293Z,103683.33
2019-01-04T19:50:21.883Z,103672.02
2019-01-04T19:53:25.544Z,103677.65
2019-01-04T19:56:29.048Z,103669.38
2019-01-04T19:59:32.726Z,103665.26
2019-01-04T20:02:36.189Z,103664.39
2019-01-04T20:06:10.720Z,103665.52
2019-01-04T20:09:31.491Z,103662.79
2019-01-04T20:15:01.669Z,103666.84
2019-01-04T20:18:12.138Z,103665.55
2019-01-04T20:22:18.546Z,103669.60
2019-01-04T20:25:27.215Z,103675.17
2019-01-04T20:29:35.028Z,103677.06
2019-01-04T20:32:43.854Z,103683.14
2019-01-04T20:35:52.540Z,103679.63
2019-01-04T20:39:02.140Z,103685.14
2019-01-04T20:42:09.681Z,103682.01
2019-01-04T20:47:27.899Z,103683.98
2019-01-04T20:50:39.646Z,103690.13
2019-01-04T20:53:56.433Z,103691.06
2019-01-04T20:57:22.183Z,103692.35
2019-01-04T21:02:40.018Z,103695.20
2019-01-04T21:05:51.704Z,103703.92
2019-01-04T21:09:00.571Z,103700.98
2019-01-04T21:14:17.742Z,103703.73
2019-01-04T21:18:01.822Z,103708.32
2019-01-04T21:23:13.601Z,103697.05
2019-01-04T21:26:22.367Z,103698.78
2019-01-04T21:29:39.079Z,103701.48
2019-01-04T21:32:49.800Z,103694.90
2019-01-04T21:35:58.671Z,103700.65
2019-01-04T21:39:07.549Z,103707.73
2019-01-04T21:42:16.631Z,103710.92
2019-01-04T21:47:34.256Z,103711.62
2019-01-04T21:50:42.030Z,103710.29
2019-01-04T21:53:50.783Z,103709.53
2019-01-04T21:56:59.656Z,103707.26
2019-01-04T22:00:12.322Z,103714.06
2019-01-04T22:03:53.764Z,103708.21
2019-01-04T22:07:02.699Z,103713.17
2019-01-04T22:10:22.393Z,103707.52
2019-01-04T22:14:31.229Z,103702.93
2019-01-04T22:17:40.092Z,103696.75
2019-01-04T22:20:48.974Z,103697.66
2019-01-04T22:24:04.816Z,103695.88
2019-01-04T22:28:12.564Z,103691.02
2019-01-04T22:31:21.422Z,103689.61
2019-01-04T22:34:31.205Z,103684.76
2019-01-04T22:38:14.574Z,103686.32
2019-01-04T22:41:27.431Z,103681.04
2019-01-04T22:44:36.040Z,103685.39
2019-01-04T22:47:53.711Z,103686.16
2019-01-04T22:53:08.900Z,103676.86
2019-01-04T22:57:20.500Z,103673.77
2019-01-04T23:00:32.932Z,103668.81
2019-01-04T23:03:41.826Z,103663.72
2019-01-04T23:06:51.467Z,103666.61
2019-01-04T23:09:59.121Z,103660.60
2019-01-04T23:13:07.877Z,103668.04
2019-01-04T23:16:16.591Z,103663.10
2019-01-04T23:21:28.870Z,103656.16
2019-01-04T23:24:36.573Z,103653.02
2019-01-04T23:27:53.180Z,103648.20
2019-01-04T23:31:07.951Z,103653.09
2019-01-04T23:34:26.644Z,103646.99
2019-01-04T23:37:35.612Z,103642.82
2019-01-04T23:40:46.361Z,103647.13
2019-01-04T23:44:53.047Z,103644.83
2019-01-04T23:50:07.978Z,103640.57
2019-01-04T23:53:31.073Z,103634.91
2019-01-04T23:56:41.165Z,103631.78
2019-01-04T23:59:53.489Z,103627.50
